San Luis Potosi, Mexico

7:41 AM CDT on August 30, 2016 (GMT -0500)
Ponciano Arriaga International | | Change Station

Elev 6033 ft 22.26 °N, 100.93 °W | Updated 55 minutes ago

Partly Cloudy
Partly Cloudy
54 °F
Feels Like 54 °F
N
0
Wind Variable Wind from North

Today
High -- | Low -- °F
--% Chance of Precip.
Yesterday
High -- | Low -- °F
Precip. -- in
Pressure 29.84 in
Visibility 10.0 miles
Clouds Few 25000 ft
Dew Point 46 °F
Humidity 77%
Rainfall 0.00 in
Snow Depth Not available.
7:26 AM 8:01 PM
Waning Crescent, 4% visible
METAR MMSP 301146Z 00000KT 10SM FEW250 12/08 A3022 RMK SLP104 57005 954 8/001
Pressure 29.84 in
Visibility 10.0 miles
Clouds Few 25000 ft
Dew Point 46 °F
Humidity 77%
Rainfall 0.00 in
Snow Depth Not available.
7:26 AM 8:01 PM
Waning Crescent, 4% visible
METAR MMSP 301146Z 00000KT 10SM FEW250 12/08 A3022 RMK SLP104 57005 954 8/001

10-Day Weather Forecast

No radar image for this location.
×

Almanac

Astronomy

Aug. 30, 2016 Rise Set
Actual Time
Civil Twilight
Nautical Twilight
Astronomical Twilight
Moon
Length of Visible Light
Length of Day
Tomorrow will be .
, % of the Moon is Illuminated

Today's Extremes

Country Highs Country Lows

Community

WunderPhotos

Upload Photos

1,935,824 photos uploaded!

WunderBlog® & News

Nearby

Air Quality

  Air Quality AQ Index Pollutant
Not available.

Snow Depth

Station Depth Elevation

Earthquake Activity

City Distance Mag. Time & Date
Minimum magnitude displayed is 2.5.

Coastal Water Temperatures

Place Temperature

Stations

Nearby Weather Stations

Station Location Temp. Windchill Dew Point Humidity Wind Precip. Elev Updated Type